createdAt,value
2023-09-27T00:01:56.594Z,0.70
2023-09-27T00:04:26.992Z,0.95
2023-09-27T00:06:57.434Z,0.63
2023-09-27T00:09:27.690Z,0.70
2023-09-27T00:11:59.314Z,0.77
2023-09-27T00:14:29.618Z,0.88
2023-09-27T00:17:02.950Z,0.70
2023-09-27T00:19:34.074Z,0.90
2023-09-27T00:22:04.362Z,0.80
2023-09-27T00:24:35.545Z,0.90
2023-09-27T00:29:36.054Z,0.90
2023-09-27T00:32:09.912Z,1.00
2023-09-27T00:34:40.225Z,0.70
2023-09-27T00:37:11.107Z,0.87
2023-09-27T00:39:41.298Z,0.80
2023-09-27T00:42:11.550Z,0.90
2023-09-27T00:44:41.774Z,0.80
2023-09-27T00:47:15.523Z,1.00
2023-09-27T00:49:47.706Z,0.90
2023-09-27T00:52:18.018Z,0.80
2023-09-27T00:54:49.976Z,1.00
2023-09-27T00:57:20.508Z,0.90
2023-09-27T00:59:51.021Z,0.80
2023-09-27T01:02:24.227Z,0.80
2023-09-27T01:04:55.921Z,0.80
2023-09-27T01:07:26.190Z,0.80
2023-09-27T01:09:56.534Z,0.90
2023-09-27T01:12:27.023Z,0.70
2023-09-27T01:14:57.705Z,0.95
2023-09-27T01:17:30.571Z,0.90
2023-09-27T01:20:00.893Z,0.98
2023-09-27T01:22:31.128Z,0.73
2023-09-27T01:25:06.103Z,1.00
2023-09-27T01:27:36.640Z,0.70
2023-09-27T01:30:07.231Z,0.80
2023-09-27T01:32:37.780Z,0.80
2023-09-27T01:35:09.742Z,0.80
2023-09-27T01:37:40.232Z,0.70
2023-09-27T01:40:18.616Z,0.90
2023-09-27T01:42:48.908Z,0.80
2023-09-27T01:45:19.301Z,0.70
2023-09-27T01:47:49.621Z,0.70
2023-09-27T01:50:21.104Z,0.90
2023-09-27T01:52:51.354Z,0.63
2023-09-27T01:55:24.658Z,0.70
2023-09-27T01:57:55.196Z,0.80
2023-09-27T02:00:25.642Z,0.73
2023-09-27T02:03:00.399Z,0.63
2023-09-27T02:05:32.924Z,0.73
2023-09-27T02:08:03.332Z,0.88
2023-09-27T02:10:36.228Z,0.90
2023-09-27T02:13:06.958Z,0.70
2023-09-27T02:15:37.405Z,0.90
2023-09-27T02:18:08.278Z,0.88
2023-09-27T02:20:38.920Z,0.80
2023-09-27T02:23:09.344Z,0.77
2023-09-27T02:25:42.668Z,0.65
2023-09-27T02:28:12.891Z,0.80
2023-09-27T02:30:43.743Z,0.70
2023-09-27T02:33:13.976Z,0.70
2023-09-27T02:35:45.012Z,0.63
2023-09-27T02:38:15.590Z,0.80
2023-09-27T02:40:48.562Z,0.80
2023-09-27T02:43:19.081Z,0.60
2023-09-27T02:45:50.954Z,0.63
2023-09-27T02:48:21.209Z,0.70
2023-09-27T02:50:53.877Z,0.83
2023-09-27T02:53:24.617Z,0.50
2023-09-27T02:55:57.490Z,0.60
2023-09-27T02:58:27.660Z,0.82
2023-09-27T03:00:58.380Z,0.57
2023-09-27T03:03:29.161Z,0.70
2023-09-27T03:05:59.486Z,0.80
2023-09-27T03:08:31.072Z,0.77
2023-09-27T03:11:08.143Z,0.77
2023-09-27T03:13:38.457Z,0.70
2023-09-27T03:16:08.860Z,0.80
2023-09-27T03:18:39.174Z,0.70
2023-09-27T03:21:09.749Z,0.77
2023-09-27T03:23:40.014Z,0.95
2023-09-27T03:26:13.255Z,0.80
2023-09-27T03:28:43.534Z,0.80
2023-09-27T03:31:13.969Z,0.60
2023-09-27T03:33:44.190Z,0.70
2023-09-27T03:36:14.426Z,0.85
2023-09-27T03:38:44.626Z,0.70
2023-09-27T03:41:17.622Z,0.60
2023-09-27T03:43:49.183Z,0.80
2023-09-27T03:46:19.562Z,0.70
2023-09-27T03:48:49.855Z,0.73
2023-09-27T03:51:27.603Z,0.60
2023-09-27T03:53:58.231Z,0.60
2023-09-27T03:56:36.177Z,0.73
2023-09-27T03:59:06.763Z,0.80
2023-09-27T04:01:37.329Z,0.75
2023-09-27T04:04:08.144Z,0.60
2023-09-27T04:06:38.757Z,0.70
2023-09-27T04:09:10.821Z,0.52
2023-09-27T04:11:43.835Z,0.70
2023-09-27T04:14:14.229Z,0.65
2023-09-27T04:16:44.475Z,0.73
2023-09-27T04:19:14.846Z,0.60
2023-09-27T04:21:45.005Z,1.02
2023-09-27T04:24:15.313Z,0.90
2023-09-27T04:26:48.265Z,0.70
2023-09-27T04:29:18.587Z,0.80
2023-09-27T04:31:48.882Z,1.10
2023-09-27T04:34:19.299Z,0.97
2023-09-27T04:36:49.502Z,0.97
2023-09-27T04:39:20.768Z,1.23
2023-09-27T04:41:53.550Z,1.00
2023-09-27T04:44:24.450Z,1.23
2023-09-27T04:46:55.761Z,2.13
2023-09-27T04:49:25.960Z,1.55
2023-09-27T04:51:56.163Z,2.22
2023-09-27T04:54:26.497Z,2.70
2023-09-27T04:56:59.625Z,2.67
2023-09-27T04:59:29.938Z,2.33
2023-09-27T05:02:00.256Z,2.00
2023-09-27T05:04:30.446Z,2.30
2023-09-27T05:07:00.840Z,2.50
2023-09-27T05:09:31.394Z,2.45
2023-09-27T05:12:05.049Z,2.10
2023-09-27T05:14:35.482Z,2.28
2023-09-27T05:17:06.407Z,1.92
2023-09-27T05:19:36.814Z,2.22
2023-09-27T05:22:07.084Z,1.80
2023-09-27T05:24:40.377Z,2.70
2023-09-27T05:27:13.298Z,1.88
2023-09-27T05:29:43.684Z,2.22
2023-09-27T05:32:14.142Z,2.58
2023-09-27T05:34:44.664Z,1.98
2023-09-27T05:37:16.117Z,1.42
2023-09-27T05:39:46.463Z,1.92
2023-09-27T05:42:19.305Z,1.73
2023-09-27T05:44:49.610Z,1.50
2023-09-27T05:47:19.979Z,2.03
2023-09-27T05:49:50.366Z,1.75
2023-09-27T05:52:20.660Z,1.75
2023-09-27T05:54:52.937Z,2.03
2023-09-27T05:57:25.866Z,2.63
2023-09-27T05:59:56.137Z,1.83
2023-09-27T06:02:32.612Z,1.70
2023-09-27T06:05:04.986Z,2.00
2023-09-27T06:07:35.295Z,1.67
2023-09-27T06:10:05.897Z,1.67
2023-09-27T06:12:38.952Z,1.52
2023-09-27T06:15:11.401Z,1.70
2023-09-27T06:17:41.830Z,1.45
2023-09-27T06:20:21.662Z,1.60
2023-09-27T06:22:54.368Z,1.67
2023-09-27T06:25:30.456Z,1.60
2023-09-27T06:28:04.329Z,1.42
2023-09-27T06:30:34.848Z,1.10
2023-09-27T06:33:05.228Z,2.60
2023-09-27T06:35:35.929Z,1.67
2023-09-27T06:38:07.260Z,1.35
2023-09-27T06:40:37.878Z,2.08
2023-09-27T06:43:10.855Z,1.88
2023-09-27T06:45:44.296Z,1.60
2023-09-27T06:48:14.956Z,1.35
2023-09-27T06:50:48.456Z,1.55
2023-09-27T06:53:24.236Z,1.83
2023-09-27T06:55:57.128Z,1.35
2023-09-27T06:58:31.602Z,1.80
2023-09-27T07:01:02.291Z,1.77
2023-09-27T07:03:35.866Z,1.73
2023-09-27T07:06:07.219Z,1.70
2023-09-27T07:08:38.211Z,1.25
2023-09-27T07:11:09.722Z,1.20
2023-09-27T07:13:43.461Z,1.20
2023-09-27T07:16:28.058Z,1.52
2023-09-27T07:19:01.365Z,1.23
2023-09-27T07:21:32.146Z,1.45
2023-09-27T07:24:02.960Z,1.23
2023-09-27T07:26:34.384Z,1.27
2023-09-27T07:29:09.671Z,0.98
2023-09-27T07:31:40.631Z,1.10
2023-09-27T07:34:11.771Z,1.13
2023-09-27T07:39:13.185Z,0.95
2023-09-27T07:41:44.503Z,1.13
2023-09-27T07:44:19.659Z,0.98
2023-09-27T07:46:50.432Z,1.20
2023-09-27T07:49:21.102Z,1.15
2023-09-27T07:51:51.853Z,1.27
2023-09-27T07:54:22.876Z,0.80
2023-09-27T07:59:29.890Z,1.00
2023-09-27T08:02:00.963Z,1.10
2023-09-27T08:04:31.782Z,0.90
2023-09-27T08:07:02.416Z,0.93
2023-09-27T08:09:41.009Z,0.80
2023-09-27T08:12:12.153Z,0.73
2023-09-27T08:14:45.707Z,0.80
2023-09-27T08:17:16.723Z,1.25
2023-09-27T08:19:47.377Z,0.98
2023-09-27T08:22:18.505Z,1.00
2023-09-27T08:24:49.695Z,1.20
2023-09-27T08:27:21.400Z,1.23
2023-09-27T08:29:54.618Z,1.20
2023-09-27T08:32:25.348Z,1.30
2023-09-27T08:34:56.002Z,1.38
2023-09-27T08:37:26.399Z,1.15
2023-09-27T08:39:57.468Z,1.30
2023-09-27T08:42:28.870Z,1.40
2023-09-27T08:45:04.833Z,1.30
2023-09-27T08:47:36.772Z,1.25
2023-09-27T08:50:07.848Z,1.10
2023-09-27T08:52:42.824Z,1.30
2023-09-27T08:55:14.679Z,1.17
2023-09-27T08:57:50.213Z,1.45
2023-09-27T09:00:28.806Z,1.10
2023-09-27T09:03:04.666Z,1.20
2023-09-27T09:05:36.282Z,1.35
2023-09-27T09:08:09.101Z,1.25
2023-09-27T09:10:41.825Z,1.02
2023-09-27T09:13:15.620Z,1.27
2023-09-27T09:15:50.432Z,1.45
2023-09-27T09:18:34.647Z,1.30
2023-09-27T09:21:10.430Z,1.42
2023-09-27T09:23:48.170Z,1.10
2023-09-27T09:26:31.292Z,1.00
2023-09-27T09:29:04.090Z,1.50
2023-09-27T09:31:37.432Z,1.20
2023-09-27T09:34:08.388Z,1.83
2023-09-27T09:36:40.117Z,1.10
2023-09-27T09:39:15.255Z,1.20
2023-09-27T09:41:50.462Z,1.10
2023-09-27T09:44:21.070Z,1.20
2023-09-27T09:46:58.505Z,1.20
2023-09-27T09:49:29.221Z,0.90
2023-09-27T09:52:01.321Z,1.02
2023-09-27T09:54:39.573Z,1.30
2023-09-27T09:57:18.700Z,1.20
2023-09-27T10:00:00.240Z,1.23
2023-09-27T10:05:10.266Z,0.98
2023-09-27T10:07:42.568Z,1.10
2023-09-27T10:10:15.131Z,1.35
2023-09-27T10:12:46.797Z,1.20
2023-09-27T10:15:19.466Z,1.23
2023-09-27T10:17:53.201Z,1.27
2023-09-27T10:20:25.922Z,1.23
2023-09-27T10:22:59.120Z,1.17
2023-09-27T10:25:39.300Z,1.13
2023-09-27T10:28:14.247Z,1.17
2023-09-27T10:31:19.552Z,1.30
2023-09-27T10:33:55.191Z,1.25
2023-09-27T10:36:35.794Z,1.13
2023-09-27T10:39:10.809Z,1.20
2023-09-27T10:41:48.824Z,1.20
2023-09-27T10:44:35.047Z,1.35
2023-09-27T10:47:07.912Z,1.10
2023-09-27T10:49:45.176Z,1.08
2023-09-27T10:52:20.451Z,1.20
2023-09-27T10:54:53.532Z,1.33
2023-09-27T10:57:25.765Z,1.23
2023-09-27T10:59:56.906Z,1.08
2023-09-27T11:02:34.382Z,1.20
2023-09-27T11:05:08.280Z,0.98
2023-09-27T11:07:54.213Z,1.20
2023-09-27T11:10:36.310Z,1.00
2023-09-27T11:13:12.183Z,1.15
2023-09-27T11:15:43.508Z,1.30
2023-09-27T11:18:14.957Z,1.00
2023-09-27T11:20:50.015Z,1.13
2023-09-27T11:23:22.586Z,1.02
2023-09-27T11:25:53.916Z,1.20
2023-09-27T11:28:24.725Z,1.00
2023-09-27T11:31:02.189Z,1.05
2023-09-27T11:33:36.160Z,1.23
2023-09-27T11:36:12.387Z,0.98
2023-09-27T11:38:43.016Z,1.00
2023-09-27T11:41:18.288Z,1.10
2023-09-27T11:43:50.738Z,1.20
2023-09-27T11:46:33.616Z,1.10
2023-09-27T11:49:11.982Z,1.00
2023-09-27T11:51:45.300Z,1.30
2023-09-27T11:54:16.788Z,1.20
2023-09-27T11:56:48.523Z,1.17
2023-09-27T11:59:19.273Z,1.13
2023-09-27T12:01:50.150Z,1.40
2023-09-27T12:04:20.835Z,0.90
2023-09-27T12:06:54.540Z,1.30
2023-09-27T12:09:25.240Z,1.50
2023-09-27T12:11:55.986Z,1.73
2023-09-27T12:14:26.645Z,2.25
2023-09-27T12:16:57.489Z,1.90
2023-09-27T12:19:28.029Z,2.15
2023-09-27T12:22:01.484Z,1.80
2023-09-27T12:24:32.435Z,2.00
2023-09-27T12:27:03.355Z,1.83
2023-09-27T12:29:34.533Z,1.63
2023-09-27T12:32:05.209Z,2.00
2023-09-27T12:34:37.175Z,1.83
2023-09-27T12:37:12.395Z,2.20
2023-09-27T12:39:42.818Z,2.20
2023-09-27T12:42:13.464Z,2.22
2023-09-27T12:44:44.570Z,2.45
2023-09-27T12:49:48.174Z,2.25
2023-09-27T12:52:21.519Z,2.20
2023-09-27T12:54:52.365Z,1.63
2023-09-27T12:57:22.740Z,1.73
2023-09-27T12:59:53.844Z,1.85
2023-09-27T13:04:55.834Z,1.63
2023-09-27T13:07:28.919Z,1.92
2023-09-27T13:09:59.557Z,2.38
2023-09-27T13:12:30.133Z,1.70
2023-09-27T13:15:01.231Z,1.67
2023-09-27T13:17:32.205Z,1.50
2023-09-27T13:20:02.636Z,1.65
2023-09-27T13:22:35.744Z,1.40
2023-09-27T13:25:07.961Z,1.27
2023-09-27T13:27:38.675Z,1.20
2023-09-27T13:30:32.988Z,1.40
2023-09-27T13:33:06.781Z,1.70
2023-09-27T13:35:39.589Z,1.30
2023-09-27T13:38:14.320Z,1.13
2023-09-27T13:40:45.607Z,1.27
2023-09-27T13:43:16.454Z,1.20
2023-09-27T13:45:48.241Z,1.27
2023-09-27T13:48:19.125Z,1.30
2023-09-27T13:50:49.809Z,0.90
2023-09-27T13:53:22.986Z,0.90
2023-09-27T13:55:53.944Z,1.55
2023-09-27T13:58:24.627Z,1.35
2023-09-27T14:00:56.189Z,1.27
2023-09-27T14:03:26.905Z,1.38
2023-09-27T14:05:57.380Z,1.40
2023-09-27T14:08:30.743Z,1.00
2023-09-27T14:11:01.878Z,1.00
2023-09-27T14:16:02.504Z,1.35
2023-09-27T14:18:33.073Z,1.38
2023-09-27T14:21:03.696Z,1.10
2023-09-27T14:23:37.604Z,1.30
2023-09-27T14:26:09.365Z,1.20
2023-09-27T14:28:40.474Z,1.05
2023-09-27T14:31:10.894Z,1.02
2023-09-27T14:33:41.680Z,1.20
2023-09-27T14:36:12.370Z,1.13
2023-09-27T14:38:47.183Z,2.17
2023-09-27T14:41:17.787Z,1.67
2023-09-27T14:43:48.345Z,1.40
2023-09-27T14:46:19.329Z,1.30
2023-09-27T14:51:21.755Z,1.10
2023-09-27T14:53:55.060Z,1.17
2023-09-27T14:56:25.560Z,1.08
2023-09-27T14:58:56.191Z,1.38
2023-09-27T15:01:26.808Z,1.70
2023-09-27T15:03:57.795Z,1.17
2023-09-27T15:09:01.876Z,1.48
2023-09-27T15:11:32.672Z,1.77
2023-09-27T15:14:04.067Z,1.30
2023-09-27T15:16:38.612Z,1.20
2023-09-27T15:19:09.765Z,1.52
2023-09-27T15:21:41.059Z,1.35
2023-09-27T15:24:15.290Z,1.58
2023-09-27T15:26:49.241Z,1.50
2023-09-27T15:29:19.966Z,1.35
2023-09-27T15:31:50.827Z,1.23
2023-09-27T15:34:22.169Z,1.33
2023-09-27T15:36:53.058Z,1.10
2023-09-27T15:39:26.724Z,1.52
2023-09-27T15:41:58.345Z,1.50
2023-09-27T15:44:30.748Z,1.58
2023-09-27T15:47:01.903Z,1.42
2023-09-27T15:49:33.463Z,1.10
2023-09-27T15:52:03.947Z,1.25
2023-09-27T15:54:37.464Z,1.40
2023-09-27T15:57:08.545Z,1.10
2023-09-27T16:04:51.522Z,2.40
2023-09-27T16:07:23.173Z,2.53
2023-09-27T16:09:56.563Z,1.92
2023-09-27T16:12:27.743Z,2.30
2023-09-27T16:17:28.589Z,1.88
2023-09-27T16:19:59.381Z,1.95
2023-09-27T16:22:29.765Z,1.92
2023-09-27T16:25:05.110Z,2.87
2023-09-27T16:27:35.636Z,6.10
2023-09-27T16:30:07.270Z,5.00
2023-09-27T16:32:38.819Z,3.50
2023-09-27T16:35:10.575Z,4.35
2023-09-27T16:37:41.064Z,4.07
2023-09-27T16:40:15.531Z,3.97
2023-09-27T16:42:46.037Z,3.63
2023-09-27T16:45:17.223Z,3.00
2023-09-27T16:47:48.290Z,3.78
2023-09-27T16:52:48.925Z,2.92
2023-09-27T16:55:22.194Z,2.97
2023-09-27T16:57:52.805Z,2.47
2023-09-27T17:00:23.467Z,2.80
2023-09-27T17:02:55.261Z,3.00
2023-09-27T17:05:27.761Z,2.70
2023-09-27T17:07:58.902Z,2.78
2023-09-27T17:10:34.445Z,2.42
2023-09-27T17:13:12.829Z,2.60
2023-09-27T17:15:47.248Z,2.35
2023-09-27T17:18:18.598Z,2.17
2023-09-27T17:20:50.171Z,1.70
2023-09-27T17:23:26.368Z,2.20
2023-09-27T17:26:00.187Z,1.85
2023-09-27T17:28:31.064Z,2.10
2023-09-27T17:31:01.750Z,1.85
2023-09-27T17:33:35.939Z,2.10
2023-09-27T17:36:08.574Z,1.80
2023-09-27T17:38:40.411Z,2.00
2023-09-27T17:41:14.659Z,2.00
2023-09-27T17:43:45.597Z,1.80
2023-09-27T17:46:29.771Z,1.90
2023-09-27T17:49:05.844Z,2.20
2023-09-27T17:51:42.252Z,1.90
2023-09-27T17:54:14.053Z,4.13
2023-09-27T17:56:52.089Z,2.42
2023-09-27T17:59:23.782Z,2.30
2023-09-27T18:01:56.666Z,2.53
2023-09-27T18:04:31.058Z,2.60
2023-09-27T18:07:03.295Z,2.70
2023-09-27T18:09:34.301Z,2.53
2023-09-27T18:12:10.433Z,2.65
2023-09-27T18:14:43.476Z,2.30
2023-09-27T18:17:14.961Z,2.72
2023-09-27T18:19:47.458Z,2.85
2023-09-27T18:22:18.396Z,2.20
2023-09-27T18:24:54.177Z,2.63
2023-09-27T18:27:31.416Z,2.17
2023-09-27T18:30:02.714Z,2.80
2023-09-27T18:32:35.937Z,1.98
2023-09-27T18:35:11.576Z,2.15
2023-09-27T18:37:44.322Z,2.28
2023-09-27T18:40:16.128Z,2.08
2023-09-27T18:42:51.498Z,2.15
2023-09-27T18:45:23.635Z,2.08
2023-09-27T18:47:57.068Z,2.35
2023-09-27T18:50:29.540Z,1.90
2023-09-27T18:55:33.979Z,1.58
2023-09-27T18:58:08.360Z,1.80
2023-09-27T19:00:39.511Z,1.98
2023-09-27T19:05:43.277Z,2.20
2023-09-27T19:08:15.746Z,2.03
2023-09-27T19:10:47.194Z,2.03
2023-09-27T19:13:23.827Z,2.10
2023-09-27T19:15:56.761Z,2.08
2023-09-27T19:18:31.050Z,1.98
2023-09-27T19:21:11.689Z,2.17
2023-09-27T19:23:46.796Z,2.35
2023-09-27T19:26:24.155Z,2.35
2023-09-27T19:28:59.036Z,2.53
2023-09-27T19:31:38.846Z,2.47
2023-09-27T19:34:21.779Z,3.00
2023-09-27T19:37:02.142Z,3.45
2023-09-27T19:39:34.404Z,5.55
2023-09-27T19:42:08.500Z,13.40
2023-09-27T19:44:44.479Z,45.70
2023-09-27T19:47:21.917Z,219.95
2023-09-27T19:49:58.948Z,308.88
2023-09-27T19:52:34.919Z,298.15
2023-09-27T19:55:14.995Z,268.10
2023-09-27T19:57:50.234Z,245.15
2023-09-27T20:00:26.526Z,203.50
2023-09-27T20:03:06.041Z,151.27
2023-09-27T20:05:43.308Z,151.05
2023-09-27T20:08:15.608Z,132.48
2023-09-27T20:10:48.847Z,128.43
2023-09-27T20:13:26.516Z,119.53
2023-09-27T20:16:05.182Z,109.65
2023-09-27T20:18:40.005Z,96.50
2023-09-27T20:21:15.024Z,93.55
2023-09-27T20:23:51.036Z,83.65
2023-09-27T20:26:30.988Z,79.68
2023-09-27T20:29:03.213Z,72.65
2023-09-27T20:31:40.945Z,70.90
2023-09-27T20:34:13.039Z,63.70
2023-09-27T20:36:49.780Z,60.25
2023-09-27T20:39:23.842Z,58.13
2023-09-27T20:41:57.935Z,53.65
2023-09-27T20:44:31.287Z,45.22
2023-09-27T20:47:08.298Z,29.60
2023-09-27T20:49:43.680Z,35.13
2023-09-27T20:52:16.133Z,29.45
2023-09-27T20:54:50.206Z,28.98
2023-09-27T20:57:22.395Z,26.27
2023-09-27T20:59:59.061Z,23.83
2023-09-27T21:02:40.394Z,22.05
2023-09-27T21:05:22.589Z,20.83
2023-09-27T21:07:59.400Z,19.15
2023-09-27T21:10:32.691Z,16.95
2023-09-27T21:13:04.750Z,16.08
2023-09-27T21:15:38.092Z,15.02
2023-09-27T21:18:15.020Z,13.65
2023-09-27T21:20:48.684Z,14.02
2023-09-27T21:23:28.550Z,13.30
2023-09-27T21:26:00.011Z,11.52
2023-09-27T21:28:31.949Z,11.68
2023-09-27T21:31:03.295Z,10.98
2023-09-27T21:33:38.739Z,10.32
2023-09-27T21:36:10.955Z,9.52
2023-09-27T21:38:42.992Z,9.02
2023-09-27T21:41:14.551Z,8.35
2023-09-27T21:43:46.737Z,8.20
2023-09-27T21:46:25.891Z,8.65
2023-09-27T21:49:00.932Z,7.60
2023-09-27T21:51:33.280Z,7.45
2023-09-27T21:54:06.894Z,6.95
2023-09-27T21:56:38.757Z,6.82
2023-09-27T21:59:10.602Z,6.70
2023-09-27T22:01:45.155Z,6.47
2023-09-27T22:04:20.792Z,5.22
2023-09-27T22:06:54.192Z,4.75
2023-09-27T22:09:26.270Z,4.35
2023-09-27T22:11:57.831Z,3.65
2023-09-27T22:14:28.832Z,3.70
2023-09-27T22:17:04.505Z,4.10
2023-09-27T22:19:43.760Z,3.83
2023-09-27T22:22:22.703Z,3.60
2023-09-27T22:24:54.181Z,3.47
2023-09-27T22:27:28.240Z,3.33
2023-09-27T22:29:59.677Z,3.22
2023-09-27T22:32:33.708Z,2.97
2023-09-27T22:35:21.327Z,3.10
2023-09-27T22:37:55.008Z,3.13
2023-09-27T22:40:27.916Z,2.95
2023-09-27T22:43:00.848Z,2.67
2023-09-27T22:45:36.790Z,2.72
2023-09-27T22:48:14.695Z,2.70
2023-09-27T22:50:50.813Z,2.75
2023-09-27T22:53:24.052Z,2.60
2023-09-27T22:55:59.702Z,2.35
2023-09-27T22:58:32.983Z,2.25
2023-09-27T23:01:22.078Z,2.20
2023-09-27T23:03:55.477Z,2.30
2023-09-27T23:06:30.476Z,2.08
2023-09-27T23:09:07.888Z,2.50
2023-09-27T23:11:42.220Z,1.80
2023-09-27T23:14:23.522Z,2.20
2023-09-27T23:17:14.829Z,1.80
2023-09-27T23:22:18.992Z,2.08
2023-09-27T23:24:51.022Z,1.63
2023-09-27T23:27:28.218Z,1.35
2023-09-27T23:29:57.453Z,1.60
2023-09-27T23:32:31.649Z,1.83
2023-09-27T23:35:00.724Z,1.88
2023-09-27T23:37:36.688Z,1.70
2023-09-27T23:40:15.017Z,1.42
2023-09-27T23:42:48.539Z,1.63
2023-09-27T23:45:19.822Z,1.52
2023-09-27T23:47:52.360Z,1.40
2023-09-27T23:50:31.489Z,1.30
2023-09-27T23:53:07.168Z,1.25
2023-09-27T23:55:42.566Z,1.40
2023-09-27T23:58:14.208Z,1.23
